Time;durP1;ratioP1;P1;durP2;ratioP2;P2;SDS_P1;SDS_P2;PMS_P1;PMS_P2;Temp;Humidity;BMP_temperature;BMP_pressure;BME280_temperature;BME280_humidity;BME280_pressure;Samples;Min_cycle;Max_cycle;Signal;HPM_P1;HPM_P2
2023/11/23 00:00:13;;;;;;;10.05;6.82;;;4.80;95.10;;;;;;6270012;22;20341;-64
2023/11/23 00:02:59;;;;;;;9.48;7.13;;;4.80;95.10;;;;;;6273122;22;20022;-64
2023/11/23 00:05:46;;;;;;;10.15;6.53;;;4.90;95.10;;;;;;6271840;22;20019;-62
2023/11/23 00:08:34;;;;;;;11.73;6.43;;;4.90;95.10;;;;;;6269606;22;20016;-62
2023/11/23 00:11:20;;;;;;;9.57;6.78;;;4.90;95.00;;;;;;6272993;22;20457;-64
2023/11/23 00:14:06;;;;;;;9.63;6.47;;;4.90;95.00;;;;;;6270595;22;20094;-63
2023/11/23 00:16:52;;;;;;;9.68;5.72;;;5.00;95.00;;;;;;6272013;22;20515;-64
2023/11/23 00:19:38;;;;;;;11.10;6.65;;;5.00;94.90;;;;;;6271460;22;20392;-64
2023/11/23 00:22:24;;;;;;;8.07;6.07;;;5.00;94.90;;;;;;6269829;22;20073;-63
2023/11/23 00:25:11;;;;;;;10.05;7.53;;;5.00;94.90;;;;;;6270005;22;20144;-65
2023/11/23 00:27:57;;;;;;;9.63;6.55;;;5.00;94.90;;;;;;6270618;22;20012;-62
2023/11/23 00:30:43;;;;;;;8.45;5.93;;;5.00;94.90;;;;;;6271310;22;20012;-63
2023/11/23 00:33:29;;;;;;;8.18;5.50;;;5.10;94.90;;;;;;6270088;22;20011;-63
2023/11/23 00:36:15;;;;;;;7.40;5.50;;;5.00;94.80;;;;;;6270912;22;20012;-64
2023/11/23 00:39:01;;;;;;;7.53;5.63;;;5.00;94.90;;;;;;6271639;22;20023;-64
2023/11/23 00:41:47;;;;;;;7.90;5.88;;;5.00;94.90;;;;;;6270581;22;20019;-64
2023/11/23 00:44:33;;;;;;;9.77;5.43;;;5.10;94.90;;;;;;6271525;22;20080;-63
2023/11/23 00:47:21;;;;;;;12.50;6.40;;;5.10;94.90;;;;;;6272192;22;20150;-64
2023/11/23 00:50:08;;;;;;;8.10;5.90;;;5.10;94.90;;;;;;6270634;22;20034;-64
2023/11/23 00:52:54;;;;;;;8.38;5.85;;;5.20;95.00;;;;;;6248077;22;20014;-63
2023/11/23 00:55:40;;;;;;;11.43;6.20;;;5.20;94.90;;;;;;6269836;22;20352;-64
2023/11/23 00:58:26;;;;;;;11.05;6.45;;;5.20;94.90;;;;;;6269563;22;20022;-63
2023/11/23 01:01:15;;;;;;;8.68;5.70;;;5.20;94.90;;;;;;6271535;22;20018;-64
2023/11/23 01:04:01;;;;;;;8.05;5.50;;;5.20;95.10;;;;;;6270382;22;20416;-64
2023/11/23 01:06:47;;;;;;;8.02;5.20;;;5.30;94.90;;;;;;6270292;22;20051;-63
2023/11/23 01:09:33;;;;;;;7.32;5.28;;;5.30;94.90;;;;;;6271043;22;20090;-63
2023/11/23 01:12:19;;;;;;;8.02;6.03;;;5.40;94.90;;;;;;6269056;22;20170;-62
2023/11/23 01:15:06;;;;;;;7.38;5.50;;;5.40;94.90;;;;;;6268461;22;20600;-63
2023/11/23 01:17:52;;;;;;;6.22;4.50;;;5.40;94.90;;;;;;6270064;22;20011;-63
2023/11/23 01:20:38;;;;;;;8.18;6.25;;;5.50;94.90;;;;;;6270818;22;20012;-67
2023/11/23 01:23:24;;;;;;;9.27;5.43;;;5.40;94.80;;;;;;6271531;22;20524;-67
2023/11/23 01:26:11;;;;;;;8.15;4.40;;;5.50;94.70;;;;;;6246814;22;20077;-66
2023/11/23 01:28:57;;;;;;;7.88;4.90;;;5.50;94.70;;;;;;6249491;22;20015;-67
2023/11/23 01:31:42;;;;;;;7.03;4.70;;;5.50;94.70;;;;;;6270486;22;20015;-67
2023/11/23 01:34:28;;;;;;;7.53;4.88;;;5.60;94.70;;;;;;6247668;22;20004;-67
2023/11/23 01:37:14;;;;;;;6.75;4.65;;;5.60;94.70;;;;;;6269530;22;20149;-67
2023/11/23 01:40:00;;;;;;;7.15;4.32;;;5.60;94.70;;;;;;6270397;22;20031;-67
2023/11/23 01:42:46;;;;;;;8.75;4.57;;;5.60;94.70;;;;;;6271055;22;20007;-66
2023/11/23 01:45:32;;;;;;;7.05;4.97;;;5.70;94.70;;;;;;6270670;22;20442;-65
2023/11/23 01:48:19;;;;;;;6.13;4.38;;;5.70;94.70;;;;;;6269463;22;20476;-68
2023/11/23 01:51:08;;;;;;;5.65;4.22;;;5.70;94.60;;;;;;6269939;22;20027;-67
2023/11/23 01:53:54;;;;;;;5.68;3.70;;;5.70;94.80;;;;;;6269180;22;20434;-67
2023/11/23 01:56:42;;;;;;;6.78;3.90;;;5.80;94.70;;;;;;6271117;22;20022;-66
2023/11/23 01:59:30;;;;;;;6.57;3.95;;;5.80;94.60;;;;;;6269698;22;20039;-64
2023/11/23 02:02:16;;;;;;;7.10;4.25;;;5.90;94.60;;;;;;6269514;22;20010;-65
2023/11/23 02:05:04;;;;;;;6.40;4.18;;;5.80;94.60;;;;;;6270152;22;20019;-67
2023/11/23 02:07:50;;;;;;;5.13;3.67;;;5.90;94.60;;;;;;6269741;22;20008;-66
2023/11/23 02:10:36;;;;;;;5.15;3.85;;;5.90;94.60;;;;;;6281707;22;20022;-65
2023/11/23 02:13:22;;;;;;;5.63;3.85;;;5.90;94.60;;;;;;6282285;22;20019;-66
2023/11/23 02:16:08;;;;;;;4.10;3.30;;;6.00;94.60;;;;;;6271551;22;20453;-66
2023/11/23 02:18:54;;;;;;;5.97;3.63;;;6.00;94.60;;;;;;6271397;22;20442;-67
2023/11/23 02:21:40;;;;;;;4.10;2.95;;;6.00;94.60;;;;;;6270090;22;20438;-66
2023/11/23 02:24:26;;;;;;;6.18;3.90;;;6.00;94.60;;;;;;6269869;22;20376;-67
2023/11/23 02:27:12;;;;;;;5.22;3.75;;;6.00;94.50;;;;;;6268489;22;20008;-67
2023/11/23 02:29:58;;;;;;;5.82;3.58;;;6.10;94.60;;;;;;6267919;22;20007;-70
2023/11/23 02:32:45;;;;;;;5.00;3.30;;;6.10;94.50;;;;;;6270530;22;20073;-70
2023/11/23 02:35:31;;;;;;;4.93;3.28;;;6.10;94.60;;;;;;6270640;22;20083;-70
2023/11/23 02:38:18;;;;;;;6.13;3.92;;;6.10;94.60;;;;;;6269735;22;20016;-69
2023/11/23 02:41:04;;;;;;;6.97;3.80;;;6.20;94.60;;;;;;6270782;22;20539;-70
2023/11/23 02:43:50;;;;;;;5.03;3.55;;;6.20;94.60;;;;;;6269086;22;20095;-71
2023/11/23 02:46:36;;;;;;;5.10;3.22;;;6.20;94.60;;;;;;6271189;22;20020;-71
2023/11/23 02:49:22;;;;;;;4.47;3.13;;;6.30;94.60;;;;;;6269692;22;20405;-70
2023/11/23 02:52:08;;;;;;;5.97;3.05;;;6.30;94.60;;;;;;6268180;22;20008;-69
2023/11/23 02:54:54;;;;;;;5.30;3.38;;;6.30;94.70;;;;;;6269046;22;20008;-71
2023/11/23 02:57:42;;;;;;;4.13;3.08;;;6.40;94.70;;;;;;6246095;22;20086;-71
2023/11/23 03:00:28;;;;;;;4.38;3.45;;;6.40;94.70;;;;;;6270321;22;20257;-70
2023/11/23 03:03:14;;;;;;;5.18;3.30;;;6.40;94.70;;;;;;6246939;22;20012;-70
2023/11/23 03:06:00;;;;;;;5.05;3.22;;;6.40;94.70;;;;;;6270112;22;20024;-70
2023/11/23 03:08:46;;;;;;;4.43;3.05;;;6.50;94.70;;;;;;6268826;22;20014;-71
2023/11/23 03:11:32;;;;;;;4.13;2.90;;;6.50;94.70;;;;;;6268303;22;20015;-70
2023/11/23 03:14:19;;;;;;;5.45;3.20;;;6.50;94.70;;;;;;6271052;22;20082;-71
2023/11/23 03:17:06;;;;;;;4.55;3.30;;;6.60;94.70;;;;;;6269092;22;20015;-70
2023/11/23 03:19:51;;;;;;;5.68;3.10;;;6.60;94.70;;;;;;6270602;22;20046;-71
2023/11/23 03:22:37;;;;;;;6.75;3.05;;;6.60;94.70;;;;;;6248380;22;20012;-70
2023/11/23 03:25:24;;;;;;;5.45;3.42;;;6.70;94.80;;;;;;6270627;22;20023;-71
2023/11/23 03:28:11;;;;;;;5.18;3.05;;;6.70;94.80;;;;;;6269096;22;20430;-70
2023/11/23 03:30:57;;;;;;;3.75;2.70;;;6.70;94.80;;;;;;6269200;22;20008;-72
2023/11/23 03:33:43;;;;;;;5.50;3.30;;;6.70;94.90;;;;;;6270418;22;20050;-70
2023/11/23 03:36:28;;;;;;;4.78;2.92;;;6.70;94.90;;;;;;6272400;22;20011;-72
2023/11/23 03:39:14;;;;;;;3.92;2.78;;;6.80;94.90;;;;;;6272403;22;20008;-71
2023/11/23 03:42:01;;;;;;;4.85;2.80;;;6.80;95.00;;;;;;6271303;22;20007;-71
2023/11/23 03:44:47;;;;;;;4.85;2.85;;;6.80;95.00;;;;;;6271023;22;20024;-70
2023/11/23 03:47:33;;;;;;;3.90;2.60;;;6.80;95.00;;;;;;6270724;22;20018;-71
2023/11/23 03:50:19;;;;;;;4.78;2.95;;;6.90;95.10;;;;;;6273633;22;20028;-70
2023/11/23 03:53:05;;;;;;;5.55;2.65;;;6.90;95.10;;;;;;6250035;22;20012;-70
2023/11/23 03:55:50;;;;;;;4.75;3.33;;;6.90;95.10;;;;;;6270211;22;20011;-69
2023/11/23 03:58:36;;;;;;;3.47;2.47;;;6.90;95.20;;;;;;6269638;22;20014;-70
2023/11/23 04:01:23;;;;;;;5.72;3.50;;;7.00;95.30;;;;;;6271163;22;20119;-70
2023/11/23 04:04:09;;;;;;;4.03;2.45;;;7.00;95.30;;;;;;6248945;22;20004;-71
2023/11/23 04:06:54;;;;;;;4.53;3.25;;;7.10;95.30;;;;;;6271426;22;20402;-70
2023/11/23 04:09:40;;;;;;;5.05;2.97;;;7.10;95.30;;;;;;6270707;22;20031;-70
2023/11/23 04:12:26;;;;;;;5.43;2.92;;;7.20;95.40;;;;;;6271946;22;20027;-69
2023/11/23 04:15:12;;;;;;;5.82;2.83;;;7.10;95.40;;;;;;6271788;22;20342;-69
2023/11/23 04:17:58;;;;;;;5.07;2.95;;;7.10;95.50;;;;;;6271189;22;20004;-70
2023/11/23 04:20:44;;;;;;;4.75;3.00;;;7.10;95.50;;;;;;6271387;22;20397;-68
2023/11/23 04:23:30;;;;;;;3.67;2.60;;;7.10;95.60;;;;;;6271581;22;20095;-70
2023/11/23 04:26:16;;;;;;;5.45;3.78;;;7.20;95.70;;;;;;6272779;22;20098;-69
2023/11/23 04:29:02;;;;;;;5.95;2.90;;;7.30;95.80;;;;;;6271778;22;20449;-70
2023/11/23 04:31:48;;;;;;;5.55;2.47;;;7.30;95.80;;;;;;6271538;22;20012;-70
2023/11/23 04:34:34;;;;;;;4.90;2.97;;;7.30;95.80;;;;;;6270218;22;20464;-69
2023/11/23 04:37:23;;;;;;;3.83;3.15;;;7.30;95.90;;;;;;6271669;22;20008;-70
2023/11/23 04:40:10;;;;;;;4.90;2.90;;;7.40;95.90;;;;;;6270511;22;20087;-70
2023/11/23 04:42:56;;;;;;;4.10;2.85;;;7.40;96.00;;;;;;6270037;22;20010;-70
2023/11/23 04:45:43;;;;;;;4.40;2.92;;;7.40;96.00;;;;;;6270889;22;20365;-70
2023/11/23 04:48:29;;;;;;;4.15;2.92;;;7.50;96.20;;;;;;6270682;22;20447;-71
2023/11/23 04:51:16;;;;;;;5.03;3.40;;;7.50;96.20;;;;;;6270621;22;20023;-70
2023/11/23 04:54:02;;;;;;;8.23;3.10;;;7.60;96.30;;;;;;6270914;22;20043;-70
2023/11/23 04:56:50;;;;;;;4.93;3.38;;;7.60;96.40;;;;;;6269955;22;20305;-71
2023/11/23 04:59:36;;;;;;;5.38;3.17;;;7.60;96.40;;;;;;6271609;22;20030;-71
2023/11/23 05:02:23;;;;;;;6.18;3.88;;;7.70;96.50;;;;;;6270229;22;20004;-71
2023/11/23 05:05:12;;;;;;;5.88;3.58;;;7.70;96.60;;;;;;6269679;22;20126;-70
2023/11/23 05:07:57;;;;;;;5.65;3.30;;;7.70;96.70;;;;;;6270515;22;20012;-69
2023/11/23 05:10:43;;;;;;;5.15;3.15;;;7.80;96.70;;;;;;6269807;22;20141;-71
2023/11/23 05:13:29;;;;;;;5.53;4.03;;;7.80;96.80;;;;;;6272067;22;20000;-70
2023/11/23 05:16:15;;;;;;;4.90;3.20;;;7.90;96.90;;;;;;6272603;22;20086;-70
2023/11/23 05:19:01;;;;;;;4.18;2.88;;;7.90;97.00;;;;;;6270411;22;20078;-70
2023/11/23 05:21:47;;;;;;;5.53;3.58;;;7.90;97.00;;;;;;6270780;22;20348;-70
2023/11/23 05:24:33;;;;;;;6.30;3.50;;;8.00;97.10;;;;;;6270527;22;20011;-69
2023/11/23 05:27:19;;;;;;;5.75;3.58;;;8.00;97.10;;;;;;6270964;22;20011;-70
2023/11/23 05:30:06;;;;;;;8.50;3.63;;;8.00;97.20;;;;;;6270352;22;20380;-69
2023/11/23 05:32:52;;;;;;;7.78;3.80;;;8.10;97.20;;;;;;6269629;22;20007;-69
2023/11/23 05:35:38;;;;;;;7.10;3.38;;;8.10;97.30;;;;;;6272094;22;20011;-69
2023/11/23 05:38:23;;;;;;;5.85;3.80;;;8.20;97.40;;;;;;6285107;22;20039;-70
2023/11/23 05:41:09;;;;;;;4.90;3.58;;;8.20;97.50;;;;;;6279192;22;20445;-69
2023/11/23 05:43:58;;;;;;;5.40;4.28;;;8.20;97.60;;;;;;6272804;22;20353;-70
2023/11/23 05:46:46;;;;;;;7.40;4.13;;;8.20;97.70;;;;;;6270070;22;20146;-69
2023/11/23 05:49:32;;;;;;;7.43;4.15;;;8.30;97.80;;;;;;6270419;22;20342;-70
2023/11/23 05:52:18;;;;;;;5.63;3.70;;;8.30;97.90;;;;;;6270449;22;20016;-70
2023/11/23 05:55:04;;;;;;;6.75;4.00;;;8.30;98.00;;;;;;6271799;22;20011;-71
2023/11/23 05:57:50;;;;;;;7.80;4.10;;;8.30;98.00;;;;;;6247949;22;20008;-69
2023/11/23 06:00:36;;;;;;;6.07;4.60;;;8.40;98.10;;;;;;6269236;22;20091;-71
2023/11/23 06:03:22;;;;;;;5.45;4.22;;;8.40;98.20;;;;;;6269959;22;20015;-72
2023/11/23 06:06:17;;;;;;;6.30;4.93;;;8.40;98.30;;;;;;6270447;22;20051;-70
2023/11/23 06:09:03;;;;;;;6.80;4.63;;;8.50;98.50;;;;;;6269287;22;20003;-70
2023/11/23 06:11:49;;;;;;;7.45;5.53;;;8.50;98.50;;;;;;6270582;22;20038;-69
2023/11/23 06:14:38;;;;;;;7.13;5.07;;;8.50;98.70;;;;;;6269119;22;20046;-71
2023/11/23 06:17:24;;;;;;;7.95;5.15;;;8.50;98.80;;;;;;6269840;22;20022;-69
2023/11/23 06:20:12;;;;;;;8.98;5.88;;;8.50;98.90;;;;;;6247356;22;20007;-70
2023/11/23 06:22:59;;;;;;;7.13;5.03;;;8.50;99.00;;;;;;6269078;22;20023;-69
2023/11/23 06:25:45;;;;;;;7.53;5.03;;;8.60;99.10;;;;;;6269730;22;20137;-68
2023/11/23 06:28:31;;;;;;;7.70;5.03;;;8.60;99.20;;;;;;6268487;22;20019;-69
2023/11/23 06:31:17;;;;;;;7.75;4.45;;;8.60;99.30;;;;;;6270045;22;20012;-72
2023/11/23 06:34:04;;;;;;;7.40;5.13;;;8.70;99.50;;;;;;6249573;22;20494;-70
2023/11/23 06:36:50;;;;;;;8.05;5.53;;;8.70;99.60;;;;;;6269548;22;20030;-70
2023/11/23 06:39:36;;;;;;;9.18;5.72;;;8.80;99.70;;;;;;6269807;22;20027;-71
2023/11/23 06:42:22;;;;;;;7.50;5.13;;;8.80;99.80;;;;;;6269284;22;20012;-70
2023/11/23 06:45:09;;;;;;;8.48;5.07;;;8.80;99.90;;;;;;6269199;22;20046;-69
2023/11/23 06:47:55;;;;;;;9.20;5.70;;;8.90;99.90;;;;;;6270811;22;20014;-70
2023/11/23 06:50:41;;;;;;;28.00;16.55;;;8.90;99.90;;;;;;6268940;22;20023;-69
2023/11/23 06:53:27;;;;;;;18.52;10.90;;;8.90;99.90;;;;;;6269563;22;20007;-69
2023/11/23 06:56:14;;;;;;;20.60;11.85;;;9.00;99.90;;;;;;6270578;22;20011;-70
2023/11/23 06:59:00;;;;;;;14.10;8.73;;;9.00;99.90;;;;;;6267739;22;20469;-69
2023/11/23 07:01:46;;;;;;;10.50;5.60;;;9.00;99.90;;;;;;6269752;22;20311;-71
2023/11/23 07:04:32;;;;;;;7.93;5.65;;;9.00;99.90;;;;;;6270383;22;20388;-71
2023/11/23 07:07:19;;;;;;;7.95;5.15;;;9.00;99.90;;;;;;6272227;22;20039;-71
2023/11/23 07:10:06;;;;;;;7.57;5.20;;;9.10;99.90;;;;;;6272803;22;20039;-71
2023/11/23 07:12:52;;;;;;;8.05;5.80;;;9.00;99.90;;;;;;6270728;22;20023;-72
2023/11/23 07:15:38;;;;;;;9.10;5.35;;;9.10;99.90;;;;;;6271452;22;20087;-69
2023/11/23 07:18:24;;;;;;;6.82;5.07;;;9.00;99.90;;;;;;6270548;22;20012;-70
2023/11/23 07:21:10;;;;;;;7.95;5.53;;;9.00;99.90;;;;;;6271046;22;20004;-76
2023/11/23 07:23:56;;;;;;;8.25;4.70;;;9.00;99.90;;;;;;6272726;22;20023;-70
2023/11/23 07:26:43;;;;;;;7.50;5.25;;;9.00;99.90;;;;;;6271342;22;20098;-72
2023/11/23 07:29:29;;;;;;;7.30;5.45;;;9.00;99.90;;;;;;6270867;22;20012;-69
2023/11/23 07:32:15;;;;;;;7.65;4.85;;;9.00;99.90;;;;;;6269707;22;20039;-67
2023/11/23 07:35:01;;;;;;;8.27;5.10;;;9.00;99.90;;;;;;6269270;22;20418;-68
2023/11/23 07:37:47;;;;;;;6.93;5.75;;;9.10;99.90;;;;;;6271424;22;20441;-68
2023/11/23 07:40:35;;;;;;;10.63;5.65;;;9.00;99.90;;;;;;6270838;22;20008;-64
2023/11/23 07:43:21;;;;;;;7.93;6.60;;;9.00;99.90;;;;;;6270062;22;20008;-65
2023/11/23 07:46:09;;;;;;;9.00;5.72;;;9.00;99.90;;;;;;6268579;22;20074;-65
2023/11/23 07:48:55;;;;;;;7.68;5.00;;;9.10;99.90;;;;;;6270898;22;20114;-65
2023/11/23 07:51:41;;;;;;;13.63;8.25;;;9.10;99.90;;;;;;6271872;22;20011;-65
2023/11/23 07:54:27;;;;;;;12.73;7.35;;;9.10;99.90;;;;;;6270986;22;20022;-65
2023/11/23 07:57:13;;;;;;;10.13;6.47;;;9.10;99.90;;;;;;6269888;22;20337;-65
2023/11/23 07:59:59;;;;;;;9.80;5.60;;;9.20;99.90;;;;;;6271317;22;20445;-64
2023/11/23 08:02:46;;;;;;;8.93;6.25;;;9.20;99.90;;;;;;6271251;22;20033;-64
2023/11/23 08:05:32;;;;;;;8.90;5.40;;;9.20;99.90;;;;;;6249072;22;20342;-64
2023/11/23 08:08:18;;;;;;;9.32;5.65;;;9.30;99.90;;;;;;6270471;22;20007;-64
2023/11/23 08:11:04;;;;;;;8.85;5.35;;;9.30;99.90;;;;;;6271194;22;20030;-65
2023/11/23 08:13:50;;;;;;;7.65;5.30;;;9.30;99.90;;;;;;6247675;22;20011;-63
2023/11/23 08:16:36;;;;;;;7.30;4.70;;;9.40;99.90;;;;;;6271681;22;20479;-67
2023/11/23 08:19:22;;;;;;;6.93;5.38;;;9.30;99.90;;;;;;6271228;22;20596;-64
2023/11/23 08:22:12;;;;;;;6.63;4.72;;;9.40;99.90;;;;;;6267330;22;20016;-64
2023/11/23 08:24:59;;;;;;;9.23;6.93;;;9.40;99.90;;;;;;6267844;22;20047;-65
2023/11/23 08:27:45;;;;;;;8.13;5.88;;;9.40;99.90;;;;;;6269230;22;20007;-65
2023/11/23 08:30:32;;;;;;;7.60;5.50;;;9.40;99.90;;;;;;6269675;22;20008;-64
2023/11/23 08:33:18;;;;;;;11.35;5.13;;;9.40;99.90;;;;;;6270705;22;20443;-64
2023/11/23 08:36:04;;;;;;;9.63;5.10;;;9.50;99.90;;;;;;6270988;22;20112;-65
2023/11/23 08:38:50;;;;;;;7.50;4.93;;;9.50;99.90;;;;;;6267517;22;20004;-64
2023/11/23 08:41:36;;;;;;;9.32;5.80;;;9.50;99.90;;;;;;6270684;22;20073;-65
2023/11/23 08:44:22;;;;;;;9.77;6.05;;;9.50;99.90;;;;;;6268979;22;20073;-65
2023/11/23 08:47:08;;;;;;;13.13;5.65;;;9.50;99.90;;;;;;6270266;22;20124;-65
2023/11/23 08:49:55;;;;;;;8.15;5.35;;;9.50;99.90;;;;;;6268014;22;20020;-64
2023/11/23 08:52:41;;;;;;;10.55;6.15;;;9.50;99.90;;;;;;6269993;22;20094;-64
2023/11/23 08:55:28;;;;;;;9.60;5.97;;;9.60;99.90;;;;;;6267971;22;20340;-64
2023/11/23 08:58:14;;;;;;;9.32;5.93;;;9.60;99.90;;;;;;6268189;22;20014;-65
2023/11/23 09:01:00;;;;;;;9.35;5.47;;;9.60;99.90;;;;;;6281735;22;20038;-65
2023/11/23 09:03:46;;;;;;;11.93;5.53;;;9.60;99.90;;;;;;6286844;22;20301;-64
2023/11/23 09:06:32;;;;;;;7.82;5.07;;;9.70;99.90;;;;;;6268369;22;20016;-60
2023/11/23 09:09:18;;;;;;;10.00;5.57;;;9.70;99.90;;;;;;6268177;22;20023;-60
2023/11/23 09:12:04;;;;;;;9.57;6.40;;;9.70;99.90;;;;;;6267217;22;20012;-60
2023/11/23 09:14:52;;;;;;;8.85;5.32;;;9.70;99.90;;;;;;6270254;22;20012;-61
2023/11/23 09:17:38;;;;;;;8.15;5.65;;;9.70;99.90;;;;;;6269852;22;20046;-61
2023/11/23 09:20:24;;;;;;;8.90;5.43;;;9.80;99.90;;;;;;6269915;22;20031;-60
2023/11/23 09:23:11;;;;;;;9.25;5.55;;;9.80;99.90;;;;;;6270220;22;20015;-61
2023/11/23 09:25:58;;;;;;;10.27;5.85;;;9.80;99.90;;;;;;6272168;22;20016;-61
2023/11/23 09:28:43;;;;;;;12.13;5.60;;;9.80;99.90;;;;;;6270256;22;20087;-61
2023/11/23 09:31:31;;;;;;;10.05;5.68;;;9.80;99.90;;;;;;6271066;22;20015;-60
2023/11/23 09:34:17;;;;;;;8.50;6.00;;;9.80;99.90;;;;;;6268792;22;20395;-60
2023/11/23 09:37:03;;;;;;;8.07;5.43;;;9.90;99.90;;;;;;6268995;22;20019;-61
2023/11/23 09:39:49;;;;;;;11.38;6.32;;;9.80;99.90;;;;;;6270420;22;20484;-61
2023/11/23 09:42:38;;;;;;;6.70;4.68;;;9.80;99.90;;;;;;6269354;22;20051;-60
2023/11/23 09:45:24;;;;;;;7.90;5.72;;;9.80;99.90;;;;;;6267045;22;20023;-61
2023/11/23 09:48:11;;;;;;;7.43;4.93;;;9.90;99.90;;;;;;6269739;22;20014;-62
2023/11/23 09:50:57;;;;;;;8.75;5.53;;;9.90;99.90;;;;;;6270480;22;20031;-63
2023/11/23 09:53:43;;;;;;;8.48;5.55;;;9.90;99.90;;;;;;6271280;22;20008;-61
2023/11/23 09:56:31;;;;;;;9.38;6.22;;;9.90;99.90;;;;;;6265622;22;20008;-61
2023/11/23 09:59:17;;;;;;;6.45;4.78;;;9.90;99.90;;;;;;6269645;22;20008;-61
2023/11/23 10:02:09;;;;;;;9.15;5.25;;;9.90;99.90;;;;;;6268881;22;20101;-61
2023/11/23 10:04:57;;;;;;;8.55;5.55;;;9.90;99.90;;;;;;6270410;22;20016;-61
2023/11/23 10:07:44;;;;;;;7.97;5.63;;;9.90;99.90;;;;;;6267706;22;20014;-61
2023/11/23 10:10:30;;;;;;;8.95;6.15;;;9.90;99.90;;;;;;6269230;22;20014;-61
2023/11/23 10:13:19;;;;;;;9.57;6.03;;;9.90;99.90;;;;;;6270497;22;20008;-61
2023/11/23 10:16:05;;;;;;;6.80;5.22;;;9.90;99.90;;;;;;6269066;22;20011;-61
2023/11/23 10:18:52;;;;;;;9.60;5.93;;;9.90;99.90;;;;;;6267946;22;20011;-61
2023/11/23 10:21:40;;;;;;;8.73;6.20;;;9.90;99.90;;;;;;6269638;22;20452;-61
2023/11/23 10:24:26;;;;;;;9.68;5.40;;;9.90;99.90;;;;;;6269189;22;20016;-61
2023/11/23 10:27:12;;;;;;;7.35;5.38;;;10.00;99.90;;;;;;6269692;22;20031;-61
2023/11/23 10:29:58;;;;;;;8.07;5.57;;;10.00;99.90;;;;;;6269374;22;20016;-61
2023/11/23 10:32:46;;;;;;;6.90;5.20;;;10.00;99.90;;;;;;6268594;22;20015;-60
2023/11/23 10:35:38;;;;;;;8.25;5.78;;;10.10;99.90;;;;;;6268515;22;20441;-61
2023/11/23 10:38:27;;;;;;;7.70;5.45;;;10.10;99.90;;;;;;6268153;22;20014;-61
2023/11/23 10:41:14;;;;;;;6.97;5.00;;;10.10;99.90;;;;;;6269542;22;20016;-60
2023/11/23 10:44:03;;;;;;;10.38;5.63;;;10.20;99.90;;;;;;6268334;22;20014;-61
2023/11/23 10:46:53;;;;;;;8.75;5.63;;;10.20;99.90;;;;;;6269259;22;20019;-61
2023/11/23 10:49:42;;;;;;;8.63;5.40;;;10.20;99.90;;;;;;6241721;22;20411;-61
2023/11/23 10:52:30;;;;;;;9.52;5.32;;;10.30;99.90;;;;;;6269410;22;20080;-60
2023/11/23 10:55:16;;;;;;;6.78;4.90;;;10.30;99.90;;;;;;6270496;22;20007;-61
2023/11/23 10:58:09;;;;;;;9.85;5.03;;;10.30;99.90;;;;;;6267868;22;20798;-61
2023/11/23 11:00:56;;;;;;;7.85;5.47;;;10.40;99.90;;;;;;6270106;22;20003;-60
2023/11/23 11:03:44;;;;;;;5.70;4.43;;;10.40;99.90;;;;;;6268129;22;20011;-60
2023/11/23 11:06:40;;;;;;;7.68;5.70;;;10.50;99.90;;;;;;6269639;22;20023;-61
2023/11/23 11:09:26;;;;;;;7.88;5.72;;;10.50;99.90;;;;;;6269024;22;20468;-61
2023/11/23 11:12:13;;;;;;;7.63;4.95;;;10.60;99.90;;;;;;6270237;22;20243;-60
2023/11/23 11:15:03;;;;;;;6.45;5.35;;;10.50;99.90;;;;;;6266806;22;20039;-61
2023/11/23 11:17:51;;;;;;;7.63;4.70;;;10.60;99.90;;;;;;6268490;22;20012;-60
2023/11/23 11:20:41;;;;;;;8.00;5.45;;;10.60;99.90;;;;;;6268264;22;20058;-60
2023/11/23 11:23:50;;;;;;;7.70;5.05;;;10.60;99.90;;;;;;6267860;22;20019;-62
2023/11/23 11:26:36;;;;;;;9.18;5.93;;;10.60;99.90;;;;;;6264615;22;20019;-61
2023/11/23 11:29:22;;;;;;;8.18;5.82;;;10.60;99.90;;;;;;6270361;22;20004;-59
2023/11/23 11:32:09;;;;;;;7.18;5.38;;;10.60;99.90;;;;;;6268318;22;20479;-61
2023/11/23 11:35:05;;;;;;;6.97;5.25;;;10.60;99.90;;;;;;6268796;22;20019;-61
2023/11/23 11:37:51;;;;;;;7.30;4.53;;;10.60;99.90;;;;;;6269782;22;20016;-61
2023/11/23 11:40:37;;;;;;;6.55;4.60;;;10.60;99.90;;;;;;6269094;22;20408;-61
2023/11/23 11:43:23;;;;;;;7.70;4.80;;;10.50;99.90;;;;;;6268242;22;20453;-61
2023/11/23 11:46:09;;;;;;;6.20;4.82;;;10.60;99.90;;;;;;6270117;22;20020;-61
2023/11/23 11:48:58;;;;;;;7.22;4.63;;;10.60;99.90;;;;;;6270543;22;20342;-62
2023/11/23 11:51:44;;;;;;;7.22;5.18;;;10.60;99.90;;;;;;6269038;22;20020;-61
2023/11/23 11:54:31;;;;;;;8.65;5.07;;;10.60;99.90;;;;;;6271486;22;20349;-61
2023/11/23 11:57:18;;;;;;;7.93;5.40;;;10.60;99.90;;;;;;6248421;22;20015;-61
2023/11/23 12:00:07;;;;;;;7.05;4.45;;;10.70;99.90;;;;;;6249105;22;20015;-61
2023/11/23 12:02:53;;;;;;;8.02;4.90;;;10.60;99.90;;;;;;6271142;22;20330;-61
2023/11/23 12:05:40;;;;;;;8.05;4.78;;;10.70;99.90;;;;;;6270127;22;20047;-61
2023/11/23 12:08:35;;;;;;;6.35;4.82;;;10.70;99.90;;;;;;6271216;22;20007;-61
2023/11/23 12:11:26;;;;;;;6.93;4.75;;;10.70;99.90;;;;;;6272203;22;20014;-61
2023/11/23 12:14:12;;;;;;;7.43;5.15;;;10.70;99.90;;;;;;6268637;22;20018;-61
2023/11/23 12:17:07;;;;;;;6.20;4.32;;;10.70;99.90;;;;;;6272618;22;20129;-61
2023/11/23 12:19:54;;;;;;;7.97;4.65;;;10.70;99.90;;;;;;6279668;22;20011;-63
2023/11/23 12:22:40;;;;;;;6.95;4.90;;;10.70;99.90;;;;;;6275129;22;20012;-63
2023/11/23 12:25:26;;;;;;;6.43;4.57;;;10.80;99.90;;;;;;6273950;22;20016;-62
2023/11/23 12:28:13;;;;;;;6.10;4.10;;;10.80;99.90;;;;;;6273444;22;20007;-63
2023/11/23 12:30:59;;;;;;;6.65;4.35;;;10.80;99.90;;;;;;6270518;22;20050;-62
2023/11/23 12:33:45;;;;;;;5.82;3.53;;;10.90;99.90;;;;;;6269500;22;20336;-63
2023/11/23 12:36:31;;;;;;;5.95;4.28;;;10.90;99.90;;;;;;6270461;22;20015;-63
2023/11/23 12:39:17;;;;;;;7.57;4.20;;;10.90;99.90;;;;;;6270696;22;20007;-63
2023/11/23 12:42:03;;;;;;;5.30;3.40;;;10.90;99.90;;;;;;6269887;22;20043;-61
2023/11/23 12:44:50;;;;;;;5.60;3.38;;;11.00;99.90;;;;;;6271863;22;20012;-63
2023/11/23 12:47:36;;;;;;;5.28;3.05;;;11.00;99.90;;;;;;6270277;22;20019;-62
2023/11/23 12:50:22;;;;;;;7.05;3.33;;;11.00;99.90;;;;;;6269947;22;20023;-63
2023/11/23 12:53:10;;;;;;;5.45;3.47;;;11.00;99.90;;;;;;6271173;22;20023;-62
2023/11/23 12:55:55;;;;;;;5.95;3.20;;;11.10;99.90;;;;;;6268791;22;20493;-61
2023/11/23 12:58:41;;;;;;;5.00;3.35;;;11.10;99.90;;;;;;6269748;22;20012;-62
2023/11/23 13:01:31;;;;;;;4.63;3.55;;;11.20;99.90;;;;;;6271612;22;20042;-62
2023/11/23 13:04:19;;;;;;;8.23;4.13;;;11.20;99.90;;;;;;6270496;22;20077;-62
2023/11/23 13:07:05;;;;;;;5.15;3.25;;;11.20;99.90;;;;;;6271657;22;20519;-62
2023/11/23 13:09:52;;;;;;;4.18;3.03;;;11.30;99.90;;;;;;6270078;22;20468;-63
2023/11/23 13:12:38;;;;;;;5.13;2.95;;;11.40;99.90;;;;;;6271496;22;20043;-61
2023/11/23 13:15:24;;;;;;;4.72;3.30;;;11.40;99.90;;;;;;6268846;22;20011;-61
2023/11/23 13:18:10;;;;;;;4.47;3.03;;;11.40;99.90;;;;;;6269855;22;20388;-62
2023/11/23 13:20:57;;;;;;;5.32;3.20;;;11.40;99.90;;;;;;6269314;22;20012;-64
2023/11/23 13:23:43;;;;;;;5.70;2.78;;;11.50;99.90;;;;;;6270181;22;20008;-61
2023/11/23 13:26:29;;;;;;;3.65;2.17;;;11.50;99.90;;;;;;6270745;22;20020;-61
2023/11/23 13:29:15;;;;;;;4.10;2.90;;;11.50;99.90;;;;;;6268450;22;20014;-61
2023/11/23 13:32:04;;;;;;;4.80;2.60;;;11.60;99.90;;;;;;6270295;22;20091;-62
2023/11/23 13:34:49;;;;;;;5.05;2.58;;;11.60;99.90;;;;;;6269628;22;20011;-62
2023/11/23 13:37:36;;;;;;;4.50;2.75;;;11.60;99.90;;;;;;6271540;22;20339;-62
2023/11/23 13:40:23;;;;;;;4.35;2.88;;;11.60;99.90;;;;;;6269764;22;20552;-62
2023/11/23 13:43:09;;;;;;;6.50;3.78;;;11.70;99.90;;;;;;6267408;22;20069;-62
2023/11/23 13:45:55;;;;;;;4.32;3.03;;;11.70;99.90;;;;;;6272012;22;20026;-62
2023/11/23 13:48:43;;;;;;;4.53;3.17;;;11.70;99.90;;;;;;6269694;22;20539;-62
2023/11/23 13:51:30;;;;;;;3.85;3.08;;;11.70;99.90;;;;;;6269414;22;20022;-63
2023/11/23 13:54:16;;;;;;;5.13;3.15;;;11.80;99.90;;;;;;6269633;22;20004;-62
2023/11/23 13:57:02;;;;;;;4.32;3.15;;;11.80;99.90;;;;;;6269570;22;20012;-63
2023/11/23 13:59:49;;;;;;;7.38;3.80;;;11.80;99.90;;;;;;6270299;22;20022;-66
2023/11/23 14:02:38;;;;;;;5.53;3.08;;;11.80;99.90;;;;;;6269527;22;20465;-63
2023/11/23 14:05:24;;;;;;;5.22;3.28;;;11.80;99.90;;;;;;6270973;22;20024;-64
2023/11/23 14:08:10;;;;;;;4.57;3.47;;;11.80;99.90;;;;;;6268713;22;20469;-64
2023/11/23 14:10:56;;;;;;;7.03;3.63;;;11.80;99.90;;;;;;6269756;22;20011;-62
2023/11/23 14:13:42;;;;;;;4.97;3.70;;;11.80;99.90;;;;;;6270222;22;20434;-64
2023/11/23 14:16:29;;;;;;;5.07;3.15;;;11.80;99.90;;;;;;6269392;22;20109;-63
2023/11/23 14:19:19;;;;;;;4.70;3.40;;;11.80;99.90;;;;;;6268989;22;20429;-64
2023/11/23 14:22:06;;;;;;;5.72;3.70;;;11.80;99.90;;;;;;6269615;22;20038;-62
2023/11/23 14:24:53;;;;;;;10.95;3.70;;;11.80;99.90;;;;;;6269476;22;20011;-63
2023/11/23 14:27:40;;;;;;;10.48;4.47;;;11.90;99.90;;;;;;6270111;22;20012;-65
2023/11/23 14:30:28;;;;;;;7.65;4.68;;;11.90;99.90;;;;;;6269512;22;20007;-63
2023/11/23 14:33:14;;;;;;;6.53;4.10;;;11.90;99.90;;;;;;6268758;22;20508;-62